Time;durP1;ratioP1;P1;durP2;ratioP2;P2;SDS_P1;SDS_P2;PMS_P1;PMS_P2;Temp;Humidity;BMP_temperature;BMP_pressure;BME280_temperature;BME280_humidity;BME280_pressure;Samples;Min_cycle;Max_cycle;Signal;HPM_P1;HPM_P2
2021/11/02 00:00:12;;;;;;;3.50;3.20;;;;;;;12.25;63.15;96566.00;8348155;28;20534;-68
2021/11/02 00:04:15;;;;;;;6.53;3.90;;;;;;;12.40;62.06;96556.28;8347893;28;20231;-65
2021/11/02 00:08:18;;;;;;;4.63;3.73;;;;;;;12.24;62.84;96561.78;8348387;28;20243;-65
2021/11/02 00:12:22;;;;;;;6.07;3.37;;;;;;;12.20;63.10;96562.09;8348440;28;20397;-66
2021/11/02 00:16:25;;;;;;;4.70;3.20;;;;;;;12.28;62.46;96558.00;8348604;28;20236;-66
2021/11/02 00:20:28;;;;;;;4.63;3.10;;;;;;;12.24;62.65;96550.53;8348211;28;20400;-66
2021/11/02 00:24:55;;;;;;;6.20;3.33;;;;;;;12.16;62.88;96552.88;8348159;28;20243;-65
2021/11/02 00:28:59;;;;;;;4.33;3.23;;;;;;;12.18;62.50;96553.59;8348266;28;20236;-65
2021/11/02 00:33:02;;;;;;;5.73;3.23;;;;;;;12.08;62.05;96553.44;8347966;28;20236;-65
2021/11/02 00:37:05;;;;;;;3.90;2.93;;;;;;;11.92;62.97;96551.97;8347562;28;20239;-66
2021/11/02 00:41:08;;;;;;;5.57;2.77;;;;;;;11.55;64.23;96553.72;8348108;28;20424;-66
2021/11/02 00:45:14;;;;;;;5.47;3.30;;;;;;;11.78;63.06;96551.25;8319524;28;20251;-66
2021/11/02 00:49:18;;;;;;;5.57;3.00;;;;;;;11.89;62.97;96551.31;8305955;28;20233;-67
2021/11/02 00:53:22;;;;;;;6.43;3.33;;;;;;;11.29;64.78;96548.63;8314498;28;20233;-67
2021/11/02 00:57:24;;;;;;;6.17;2.87;;;;;;;11.69;62.52;96543.22;8314818;28;20237;-66
2021/11/02 01:01:29;;;;;;;3.30;2.67;;;;;;;11.75;62.14;96544.53;8314839;28;20240;-67
2021/11/02 01:05:32;;;;;;;3.17;2.60;;;;;;;11.71;62.69;96548.28;8314682;28;20224;-66
2021/11/02 01:09:35;;;;;;;3.80;2.80;;;;;;;11.70;62.46;96546.63;8314266;28;20232;-66
2021/11/02 01:13:38;;;;;;;5.67;3.20;;;;;;;11.80;61.89;96546.78;8314485;28;20579;-66
2021/11/02 01:17:42;;;;;;;3.07;2.70;;;;;;;11.75;61.55;96536.75;8314696;28;20236;-65
2021/11/02 01:21:45;;;;;;;3.93;2.80;;;;;;;11.72;61.81;96530.00;8314323;28;20235;-66
2021/11/02 01:25:49;;;;;;;3.67;2.80;;;;;;;11.87;60.90;96530.69;8314019;28;20236;-65
2021/11/02 01:29:52;;;;;;;3.10;2.80;;;;;;;11.88;61.11;96537.53;8314076;28;20243;-65
2021/11/02 01:33:56;;;;;;;3.20;2.67;;;;;;;11.78;60.54;96525.31;8314630;28;20539;-65
2021/11/02 01:38:00;;;;;;;3.70;2.80;;;;;;;11.63;61.05;96530.69;8314253;28;20527;-65
2021/11/02 01:42:04;;;;;;;5.23;3.13;;;;;;;11.71;61.10;96540.50;8320865;28;20554;-65
2021/11/02 01:46:22;;;;;;;4.33;3.20;;;;;;;11.68;60.25;96530.34;8347382;28;20243;-65
2021/11/02 01:50:26;;;;;;;3.00;2.70;;;;;;;11.61;60.47;96532.53;8346570;28;20234;-65
2021/11/02 01:54:32;;;;;;;3.80;2.90;;;;;;;11.58;60.39;96534.56;8352328;28;20547;-65
2021/11/02 01:58:35;;;;;;;3.80;3.07;;;;;;;11.46;60.46;96536.22;8352450;28;20232;-66
2021/11/02 02:02:45;;;;;;;4.80;3.40;;;;;;;11.48;60.33;96540.38;8352440;28;20430;-65
2021/11/02 02:06:59;;;;;;;4.60;3.10;;;;;;;11.42;60.08;96533.00;8352404;28;20435;-65
2021/11/02 02:11:11;;;;;;;3.33;3.03;;;;;;;11.42;59.71;96524.41;8351982;28;20435;-65
2021/11/02 02:15:18;;;;;;;3.87;3.00;;;;;;;11.41;59.73;96515.00;8351567;28;20228;-67
2021/11/02 02:19:32;;;;;;;3.40;3.10;;;;;;;11.34;59.70;96512.00;8351943;28;20232;-66
2021/11/02 02:23:49;;;;;;;4.27;2.77;;;;;;;11.31;59.91;96507.06;8351481;28;20228;-65
2021/11/02 02:28:04;;;;;;;3.20;2.90;;;;;;;11.30;59.85;96507.97;8351379;28;20235;-65
2021/11/02 02:32:10;;;;;;;5.03;3.13;;;;;;;11.12;60.26;96516.09;8351449;28;20231;-65
2021/11/02 02:36:12;;;;;;;3.40;3.10;;;;;;;11.02;60.13;96514.25;8351044;28;20224;-65
2021/11/02 02:40:15;;;;;;;4.10;3.10;;;;;;;11.14;60.14;96513.41;8351107;28;20247;-65
2021/11/02 02:44:20;;;;;;;4.70;3.50;;;;;;;11.21;59.93;96499.06;8350595;28;20247;-66
2021/11/02 02:48:24;;;;;;;5.23;3.50;;;;;;;10.99;60.78;96504.13;8350631;28;20562;-65
2021/11/02 02:52:29;;;;;;;5.10;3.67;;;;;;;11.12;60.14;96510.09;8350793;28;20243;-65
2021/11/02 02:56:35;;;;;;;3.70;3.40;;;;;;;11.07;60.68;96517.38;8350935;28;20503;-65
2021/11/02 03:00:41;;;;;;;3.40;3.10;;;;;;;11.04;60.06;96509.78;8350427;28;20232;-65
2021/11/02 03:04:47;;;;;;;3.83;3.43;;;;;;;11.03;59.87;96515.91;8350488;28;20299;-65
2021/11/02 03:08:50;;;;;;;5.13;3.97;;;;;;;11.01;60.11;96505.66;8350396;28;20236;-65
2021/11/02 03:13:04;;;;;;;5.47;4.30;;;;;;;11.00;59.30;96511.75;8350325;28;20426;-65
2021/11/02 03:17:13;;;;;;;5.17;3.73;;;;;;;10.92;58.82;96508.88;8350035;28;20236;-65
2021/11/02 03:54:34;;;;;;;2.87;2.63;;;;;;;10.56;57.27;96500.91;8348974;28;20419;-65
2021/11/02 03:56:56;;;;;;;2.80;2.50;;;;;;;10.39;57.57;96509.00;8348451;28;20419;-66
2021/11/02 04:01:20;;;;;;;3.13;2.83;;;;;;;10.42;57.55;96500.22;8348569;28;20239;-65
2021/11/02 05:06:40;;;;;;;4.40;4.00;;;;;;;10.54;59.75;96540.78;8295850;28;20397;-66
2021/11/02 05:07:28;;;;;;;5.93;3.67;;;;;;;10.41;60.21;96537.38;8346732;28;20235;-65
2021/11/02 05:46:47;;;;;;;6.60;5.07;;;;;;;10.06;62.77;96546.47;8352086;28;20295;-66
2021/11/02 05:56:02;;;;;;;6.23;5.60;;;;;;;9.39;65.63;96543.84;8388539;27;20556;-66
2021/11/02 06:00:09;;;;;;;7.30;5.50;;;;;;;9.83;64.13;96540.22;8375406;28;20234;-66
2021/11/02 06:04:36;;;;;;;5.77;4.90;;;;;;;9.91;63.39;96535.34;8374887;28;20417;-68
2021/11/02 06:08:59;;;;;;;5.30;4.80;;;;;;;9.91;63.88;96537.94;8374607;28;20317;-66
2021/11/02 06:30:47;;;;;;;6.97;4.67;;;;;;;10.10;63.87;96547.94;8375288;28;20239;-66
2021/11/02 06:35:06;;;;;;;5.30;4.90;;;;;;;10.25;63.61;96556.47;8375240;28;20294;-66
2021/11/02 06:48:24;;;;;;;8.07;5.77;;;;;;;10.63;62.37;96554.91;8353739;28;20234;-66
2021/11/02 06:52:52;;;;;;;6.23;5.60;;;;;;;10.75;61.98;96559.22;8367869;28;20227;-66
2021/11/02 07:18:55;;;;;;;5.63;4.60;;;;;;;11.09;60.91;96552.56;8350511;28;20247;-66
2021/11/02 07:23:17;;;;;;;6.80;5.00;;;;;;;11.24;60.55;96563.66;8350566;28;20543;-66
2021/11/02 07:27:42;;;;;;;5.87;5.27;;;;;;;11.24;60.68;96568.00;8350588;28;20235;-66
2021/11/02 08:46:16;;;;;;;5.27;3.50;;;;;;;14.42;55.85;96556.19;8349268;28;20235;-67
2021/11/02 08:50:21;;;;;;;6.37;3.87;;;;;;;15.30;53.30;96560.13;8348617;28;20228;-66
2021/11/02 08:54:25;;;;;;;4.90;3.00;;;;;;;15.94;51.46;96555.53;8348708;28;20562;-67
2021/11/02 08:58:29;;;;;;;4.73;3.10;;;;;;;16.13;50.31;96555.53;8348983;28;20232;-67
2021/11/02 09:02:36;;;;;;;5.17;2.87;;;;;;;16.78;49.25;96554.91;8348943;28;20236;-66
2021/11/02 09:06:42;;;;;;;4.87;2.80;;;;;;;16.53;49.32;96554.56;8348927;28;20242;-69
2021/11/02 09:10:46;;;;;;;4.27;2.23;;;;;;;17.26;47.68;96558.38;8349085;28;20231;-67
2021/11/02 09:14:49;;;;;;;4.10;2.57;;;;;;;17.79;46.37;96555.06;8348281;28;20239;-67
2021/11/02 09:18:53;;;;;;;4.60;2.47;;;;;;;18.05;46.03;96563.06;8348399;28;20236;-67
2021/11/02 09:22:58;;;;;;;4.60;2.00;;;;;;;17.55;46.68;96553.84;8348661;28;20236;-67
2021/11/02 09:27:02;;;;;;;4.00;2.10;;;;;;;18.02;45.59;96552.88;8347682;28;20430;-67
2021/11/02 09:31:05;;;;;;;3.07;2.03;;;;;;;17.08;47.65;96556.53;8348456;28;20557;-67
2021/11/02 09:35:09;;;;;;;6.00;2.30;;;;;;;16.42;49.02;96554.69;8348396;28;20326;-67
2021/11/02 09:39:14;;;;;;;4.80;1.90;;;;;;;16.37;49.71;96554.28;8347698;28;20235;-67
2021/11/02 09:43:53;;;;;;;3.53;2.13;;;;;;;17.48;47.14;96546.72;8347745;28;20422;-68
2021/11/02 09:48:33;;;;;;;5.03;2.33;;;;;;;17.10;47.76;96543.31;8334676;28;20243;-67
2021/11/02 09:53:05;;;;;;;4.47;2.40;;;;;;;16.52;49.27;96541.63;8347553;28;20246;-67
2021/11/02 09:57:30;;;;;;;4.10;2.53;;;;;;;16.68;49.35;96543.66;8347686;28;20433;-67
2021/11/02 10:01:34;;;;;;;3.63;2.20;;;;;;;16.29;50.80;96541.09;8347024;28;20236;-67
2021/11/02 10:05:59;;;;;;;6.23;2.33;;;;;;;17.31;51.65;96533.44;8347417;28;21161;-65
2021/11/02 10:10:09;;;;;;;4.57;2.20;;;;;;;15.60;51.06;96527.94;8347110;28;20236;-64
2021/11/02 10:14:32;;;;;;;4.10;1.90;;;;;;;17.05;48.04;96522.78;8346960;28;20236;-65
2021/11/02 10:18:45;;;;;;;7.30;1.77;;;;;;;16.18;48.67;96524.63;8346798;28;20231;-65
2021/11/02 10:23:24;;;;;;;4.53;1.70;;;;;;;16.37;47.70;96529.00;8347232;28;20242;-65
2021/11/02 10:27:42;;;;;;;8.30;1.67;;;;;;;17.07;46.34;96525.28;8334940;28;20448;-65
2021/11/02 10:31:49;;;;;;;4.97;1.50;;;;;;;15.92;47.11;96528.72;8346965;28;20239;-65
2021/11/02 10:36:17;;;;;;;2.70;1.10;;;;;;;16.96;44.22;96518.41;8346692;28;20551;-68
2021/11/02 10:40:32;;;;;;;4.30;1.20;;;;;;;16.58;43.98;96509.69;8337983;28;20424;-68
2021/11/02 10:44:43;;;;;;;3.13;1.20;;;;;;;16.52;43.29;96513.69;8352893;28;20550;-63
2021/11/02 10:48:51;;;;;;;4.27;1.20;;;;;;;17.20;42.14;96510.88;8352838;28;20467;-63
2021/11/02 10:52:57;;;;;;;6.30;1.50;;;;;;;16.92;42.70;96510.03;8352360;28;20248;-63
2021/11/02 10:57:16;;;;;;;5.37;1.50;;;;;;;15.94;43.79;96511.97;8353004;28;20427;-62
2021/11/02 11:01:21;;;;;;;2.67;1.00;;;;;;;16.04;45.30;96511.97;8351759;28;20228;-64
2021/11/02 11:05:27;;;;;;;3.97;1.23;;;;;;;16.64;44.42;96510.91;8352194;28;20252;-62
2021/11/02 11:09:31;;;;;;;3.90;1.40;;;;;;;16.05;45.28;96507.56;8352004;28;20228;-62
2021/11/02 11:13:35;;;;;;;3.23;1.40;;;;;;;16.01;44.63;96500.00;8352111;28;20535;-63
2021/11/02 11:17:45;;;;;;;2.57;1.30;;;;;;;16.89;44.50;96497.28;8352169;28;20236;-63
2021/11/02 11:21:51;;;;;;;3.67;1.57;;;;;;;16.81;43.71;96494.50;8351632;28;20432;-63
2021/11/02 11:25:56;;;;;;;2.53;1.27;;;;;;;16.49;44.21;96498.31;8350944;28;20430;-63
2021/11/02 11:30:05;;;;;;;5.30;1.30;;;;;;;15.99;43.70;96496.72;8351130;28;20235;-63
2021/11/02 11:34:08;;;;;;;2.33;1.10;;;;;;;15.89;44.33;96501.09;8351593;28;20425;-63
2021/11/02 11:38:16;;;;;;;3.13;1.20;;;;;;;15.33;44.74;96505.09;8351205;28;20543;-63
2021/11/02 11:42:19;;;;;;;2.80;1.10;;;;;;;15.35;45.25;96495.38;8350734;28;20227;-65
2021/11/02 11:46:23;;;;;;;3.50;1.20;;;;;;;15.48;45.30;96494.28;8351313;28;20240;-65
2021/11/02 11:50:28;;;;;;;3.47;1.20;;;;;;;15.48;45.74;96484.69;8351161;28;20232;-64
2021/11/02 11:54:46;;;;;;;4.50;1.20;;;;;;;15.25;45.63;96484.09;8350866;28;20432;-63
2021/11/02 11:58:51;;;;;;;4.10;1.40;;;;;;;15.34;46.24;96483.25;8350664;28;20535;-63
2021/11/02 12:03:00;;;;;;;4.23;1.40;;;;;;;15.29;46.17;96475.03;8350074;28;20240;-63
2021/11/02 12:07:24;;;;;;;4.10;1.33;;;;;;;15.28;47.18;96480.38;8349826;28;20240;-62
2021/11/02 12:11:31;;;;;;;4.60;1.47;;;;;;;15.15;47.46;96467.56;8349906;28;20228;-63
2021/11/02 12:15:49;;;;;;;3.33;1.23;;;;;;;14.84;48.11;96478.03;8350064;28;20243;-62
2021/11/02 12:20:02;;;;;;;2.70;1.30;;;;;;;15.23;48.10;96472.94;8350193;28;20236;-63
2021/11/02 12:24:07;;;;;;;4.47;1.40;;;;;;;15.14;48.92;96466.75;8349909;28;20424;-63
2021/11/02 12:28:26;;;;;;;3.10;1.30;;;;;;;15.18;48.68;96465.53;8349936;28;20318;-62
2021/11/02 12:32:33;;;;;;;3.80;1.40;;;;;;;15.03;48.27;96472.88;8349458;28;20228;-63
2021/11/02 12:36:36;;;;;;;3.20;1.53;;;;;;;14.98;48.07;96467.28;8349496;28;20244;-62
2021/11/02 12:40:40;;;;;;;2.70;1.20;;;;;;;15.46;47.78;96455.31;8349539;28;20244;-63
2021/11/02 12:45:01;;;;;;;2.27;1.30;;;;;;;16.00;46.35;96455.75;8349299;28;20429;-65
2021/11/02 12:49:05;;;;;;;5.83;1.50;;;;;;;15.82;45.79;96453.84;8349668;28;20251;-65
2021/11/02 12:53:09;;;;;;;3.07;1.47;;;;;;;15.64;46.55;96450.22;8349363;28;20244;-65
2021/11/02 12:57:14;;;;;;;2.20;1.10;;;;;;;15.43;46.08;96450.34;8348992;28;20425;-65
2021/11/02 13:01:33;;;;;;;4.37;1.30;;;;;;;15.23;45.28;96445.09;8347781;28;20228;-65
2021/11/02 13:05:38;;;;;;;3.97;1.43;;;;;;;15.14;46.18;96450.28;8343937;28;20244;-65
2021/11/02 13:09:41;;;;;;;3.33;1.27;;;;;;;14.79;46.04;96461.97;8348471;28;20242;-65
2021/11/02 13:14:11;;;;;;;2.20;1.07;;;;;;;14.68;46.48;96456.84;8348305;28;20239;-65
2021/11/02 13:18:29;;;;;;;4.73;1.30;;;;;;;14.41;47.03;96466.00;8347696;28;20242;-65
2021/11/02 13:22:34;;;;;;;2.50;1.13;;;;;;;14.23;48.21;96470.97;8348235;28;20399;-64
2021/11/02 13:26:41;;;;;;;7.77;1.40;;;;;;;14.20;50.26;96481.63;8347801;28;20417;-64
2021/11/02 13:30:46;;;;;;;5.83;1.53;;;;;;;13.73;52.30;96478.50;8347574;28;20232;-64
2021/11/02 13:34:50;;;;;;;2.23;1.00;;;;;;;13.66;52.29;96486.81;8347672;28;20249;-64
2021/11/02 13:38:58;;;;;;;4.23;1.23;;;;;;;13.73;53.74;96489.75;8347618;28;20232;-65
2021/11/02 13:43:02;;;;;;;3.40;1.27;;;;;;;13.57;55.05;96497.13;8347428;28;20240;-64
2021/11/02 13:47:09;;;;;;;2.87;1.00;;;;;;;13.51;54.57;96495.84;8347651;28;20243;-64
2021/11/02 13:51:15;;;;;;;15.27;1.90;;;;;;;13.67;54.63;96501.50;8347743;28;20308;-64
2021/11/02 13:55:18;;;;;;;1.90;1.00;;;;;;;13.67;54.57;96508.47;8339373;28;20239;-63
2021/11/02 13:59:20;;;;;;;2.73;1.10;;;;;;;13.48;54.49;96501.31;8347460;28;20232;-65
2021/11/02 14:03:28;;;;;;;1.63;0.80;;;;;;;13.51;54.96;96508.03;8347459;28;20242;-65
2021/11/02 14:07:33;;;;;;;3.27;0.97;;;;;;;13.37;55.95;96507.34;8347281;28;20547;-64
2021/11/02 14:11:38;;;;;;;2.47;0.90;;;;;;;13.42;56.19;96515.63;8347473;28;20232;-64
2021/11/02 14:15:41;;;;;;;5.53;1.50;;;;;;;13.89;55.79;96510.97;8351791;28;20436;-64
2021/11/02 14:19:45;;;;;;;2.63;1.20;;;;;;;13.46;56.74;96514.44;8353959;28;20247;-64
2021/11/02 14:23:52;;;;;;;2.27;0.90;;;;;;;13.25;56.77;96511.72;8353370;28;20283;-64
2021/11/02 14:27:55;;;;;;;1.90;1.10;;;;;;;13.48;57.20;96514.31;8352763;28;20425;-65
2021/11/02 14:32:01;;;;;;;2.13;1.00;;;;;;;13.47;57.19;96517.84;8349838;28;20232;-64
2021/11/02 14:36:05;;;;;;;3.37;1.17;;;;;;;13.42;57.45;96523.41;8350081;28;20228;-65
2021/11/02 14:40:11;;;;;;;3.20;1.00;;;;;;;13.42;57.63;96512.19;8350892;28;20288;-65
2021/11/02 14:44:26;;;;;;;3.23;1.10;;;;;;;13.45;57.77;96517.97;8350708;28;20388;-64
2021/11/02 14:48:44;;;;;;;1.90;1.07;;;;;;;13.48;58.06;96517.72;8349915;28;20231;-65
2021/11/02 14:52:48;;;;;;;2.13;1.30;;;;;;;13.42;57.94;96525.19;8349891;28;20236;-65
2021/11/02 14:56:52;;;;;;;4.37;1.87;;;;;;;13.65;57.02;96523.34;8351471;28;20232;-65
2021/11/02 15:00:57;;;;;;;3.97;2.53;;;;;;;13.29;58.21;96533.09;8351730;28;20224;-64
2021/11/02 15:05:05;;;;;;;2.10;1.33;;;;;;;13.21;57.91;96532.84;8348692;28;20487;-65
2021/11/02 15:09:10;;;;;;;1.80;1.07;;;;;;;13.55;57.37;96527.66;8351278;28;20539;-65
2021/11/02 15:13:21;;;;;;;2.10;1.13;;;;;;;13.45;57.37;96532.75;8342062;28;20221;-65
2021/11/02 15:17:24;;;;;;;3.60;2.17;;;;;;;13.35;57.67;96545.66;8348182;28;20517;-64
2021/11/02 15:21:30;;;;;;;2.87;1.20;;;;;;;13.30;57.17;96539.97;8348581;28;20228;-65
2021/11/02 15:25:34;;;;;;;3.33;1.23;;;;;;;13.37;57.22;96538.56;8348945;28;20239;-64
2021/11/02 15:29:40;;;;;;;2.27;1.67;;;;;;;13.29;57.48;96539.13;8350511;28;20232;-63
2021/11/02 15:33:44;;;;;;;5.23;3.47;;;;;;;13.35;57.01;96537.84;8348995;28;20236;-63
2021/11/02 15:37:50;;;;;;;4.80;3.30;;;;;;;13.34;57.65;96535.34;8351295;28;20236;-63
2021/11/02 15:41:53;;;;;;;4.40;4.00;;;;;;;13.41;57.61;96539.13;8351296;28;20423;-63
2021/11/02 15:45:57;;;;;;;2.90;1.73;;;;;;;13.39;57.37;96541.84;8350996;28;20243;-64
2021/11/02 15:50:04;;;;;;;2.40;2.00;;;;;;;13.44;57.43;96534.53;8350858;28;20294;-63
2021/11/02 15:54:12;;;;;;;7.00;4.63;;;;;;;13.41;57.29;96533.94;8349688;28;20236;-64
2021/11/02 15:58:15;;;;;;;5.07;3.93;;;;;;;13.30;57.60;96543.38;8341903;28;20238;-63
2021/11/02 16:02:38;;;;;;;3.67;1.43;;;;;;;13.28;57.43;96542.66;8349511;28;20433;-64
2021/11/02 16:06:59;;;;;;;1.30;1.00;;;;;;;13.27;57.17;96540.19;8350365;28;20406;-63
2021/11/02 16:11:08;;;;;;;3.97;1.40;;;;;;;13.23;57.70;96543.94;8350041;28;20543;-63
2021/11/02 16:15:14;;;;;;;2.73;1.80;;;;;;;13.18;57.36;96544.31;8347464;28;20558;-63
2021/11/02 16:19:19;;;;;;;4.47;3.07;;;;;;;13.20;57.99;96552.00;8348834;28;20232;-64
2021/11/02 16:23:24;;;;;;;5.33;4.13;;;;;;;13.16;57.92;96551.41;8349472;28;20247;-64
2021/11/02 16:27:29;;;;;;;4.20;3.30;;;;;;;13.02;57.77;96552.50;8348675;28;20309;-64
2021/11/02 16:31:32;;;;;;;5.70;3.47;;;;;;;12.98;57.45;96558.84;8349120;28;20233;-63
2021/11/02 16:35:42;;;;;;;6.13;3.43;;;;;;;12.97;57.21;96562.41;8348544;28;20251;-63
2021/11/02 16:39:45;;;;;;;6.93;4.90;;;;;;;12.82;57.94;96561.78;8348516;28;20236;-63
2021/11/02 16:43:49;;;;;;;6.83;5.67;;;;;;;12.89;57.64;96560.38;8349056;28;20243;-63
2021/11/02 16:47:56;;;;;;;7.43;3.93;;;;;;;12.93;57.90;96568.78;8348654;28;20240;-63
2021/11/02 16:52:03;;;;;;;6.20;2.97;;;;;;;12.84;57.61;96570.28;8348359;28;20542;-63
2021/11/02 16:56:15;;;;;;;5.53;3.60;;;;;;;12.74;57.92;96563.28;8348257;28;20436;-63
2021/11/02 17:00:30;;;;;;;3.60;2.83;;;;;;;12.56;58.64;96566.34;8347444;28;20577;-63
2021/11/02 17:04:33;;;;;;;6.30;3.20;;;;;;;12.58;58.54;96574.00;8348327;28;20251;-63
2021/11/02 17:08:37;;;;;;;3.73;2.80;;;;;;;12.61;58.06;96577.22;8348627;28;20236;-62
2021/11/02 17:12:41;;;;;;;3.60;2.70;;;;;;;12.60;58.51;96574.72;8347536;28;20239;-62
2021/11/02 17:16:46;;;;;;;4.27;2.80;;;;;;;12.65;58.56;96575.22;8348245;28;20580;-62
2021/11/02 17:21:06;;;;;;;3.07;2.60;;;;;;;12.52;58.36;96568.31;8347987;28;20234;-62
2021/11/02 17:25:12;;;;;;;4.07;3.30;;;;;;;12.52;58.20;96578.72;8348007;28;20260;-62
2021/11/02 17:29:16;;;;;;;4.97;3.20;;;;;;;12.57;58.11;96587.97;8347756;28;20228;-63
2021/11/02 17:33:20;;;;;;;4.53;3.90;;;;;;;12.59;58.09;96589.50;8347764;28;20236;-64
2021/11/02 17:37:26;;;;;;;11.10;5.33;;;;;;;12.52;58.31;96601.25;8348086;28;20239;-63
2021/11/02 17:41:32;;;;;;;9.80;5.30;;;;;;;12.64;58.16;96599.53;8348161;28;20577;-63
2021/11/02 17:45:36;;;;;;;10.30;5.83;;;;;;;12.63;58.44;96606.50;8347702;28;20538;-63
2021/11/02 17:49:40;;;;;;;8.73;5.73;;;;;;;12.54;58.58;96603.75;8346974;28;20232;-63
2021/11/02 17:53:43;;;;;;;5.70;5.10;;;;;;;12.57;58.29;96603.53;8347415;28;20430;-63
2021/11/02 17:57:49;;;;;;;6.03;4.30;;;;;;;12.46;58.68;96610.34;8347146;28;20236;-63
2021/11/02 18:01:53;;;;;;;6.17;3.90;;;;;;;12.53;58.60;96618.50;8347539;28;20426;-63
2021/11/02 18:06:01;;;;;;;5.47;4.33;;;;;;;12.51;58.47;96623.81;8347184;28;20303;-63
2021/11/02 18:10:06;;;;;;;6.17;4.10;;;;;;;12.40;58.39;96623.78;8346758;28;20231;-63
2021/11/02 18:14:11;;;;;;;7.67;5.60;;;;;;;12.51;58.44;96635.97;8345743;28;20252;-63
2021/11/02 18:18:16;;;;;;;3.67;2.67;;;;;;;12.28;58.63;96641.06;8346588;28;20550;-63
2021/11/02 18:22:20;;;;;;;4.30;2.40;;;;;;;12.42;58.16;96641.84;8347233;28;20232;-63
2021/11/02 18:26:23;;;;;;;2.50;2.30;;;;;;;12.31;58.39;96642.59;8347157;28;20236;-63
2021/11/02 18:30:30;;;;;;;1.87;1.23;;;;;;;12.15;58.14;96639.44;8346991;28;20232;-63
2021/11/02 18:34:36;;;;;;;2.33;1.60;;;;;;;12.30;58.18;96644.38;8347220;28;20232;-63
2021/11/02 18:38:40;;;;;;;2.73;1.90;;;;;;;12.30;58.34;96648.75;8346824;28;20236;-63
2021/11/02 18:42:44;;;;;;;3.80;3.50;;;;;;;12.32;58.62;96649.47;8346737;28;20291;-63
2021/11/02 18:46:49;;;;;;;2.33;2.07;;;;;;;12.23;58.09;96644.94;8346107;28;20232;-63
2021/11/02 18:50:53;;;;;;;1.70;1.60;;;;;;;12.42;57.75;96644.44;8346547;28;20295;-63
2021/11/02 18:54:55;;;;;;;4.20;1.30;;;;;;;12.40;57.18;96652.31;8346472;28;20236;-63
2021/11/02 18:58:58;;;;;;;2.60;1.30;;;;;;;12.29;57.55;96650.50;8346903;28;20240;-63
2021/11/02 19:03:03;;;;;;;1.87;1.20;;;;;;;12.22;57.59;96651.06;8352494;28;20240;-63
2021/11/02 19:07:06;;;;;;;2.03;1.30;;;;;;;12.20;57.19;96647.75;8352557;28;20450;-63
2021/11/02 19:11:09;;;;;;;4.07;1.63;;;;;;;12.30;56.85;96651.34;8352329;28;20271;-63
2021/11/02 19:15:13;;;;;;;14.83;3.20;;;;;;;12.61;63.63;96656.91;8351411;28;20290;-63
2021/11/02 19:19:18;;;;;;;3.70;3.00;;;;;;;12.62;61.13;96664.59;8352098;28;20236;-63
2021/11/02 19:23:21;;;;;;;4.10;3.57;;;;;;;12.40;57.45;96657.53;8351692;28;20432;-63
2021/11/02 19:27:24;;;;;;;3.93;3.10;;;;;;;12.21;58.17;96660.63;8350839;28;20236;-63
2021/11/02 19:31:30;;;;;;;6.20;3.30;;;;;;;12.04;58.26;96661.81;8350238;28;20231;-63
2021/11/02 19:35:39;;;;;;;2.53;2.30;;;;;;;11.90;58.30;96667.97;8349220;28;20247;-65
2021/11/02 19:39:45;;;;;;;2.53;2.30;;;;;;;11.81;58.58;96676.38;8348324;28;20232;-65
2021/11/02 19:43:47;;;;;;;3.87;2.10;;;;;;;12.04;57.84;96676.56;8350467;28;20240;-66
2021/11/02 19:47:52;;;;;;;3.67;3.13;;;;;;;12.07;57.83;96681.50;8351017;28;20244;-66
2021/11/02 19:51:57;;;;;;;3.90;2.40;;;;;;;12.62;56.25;96682.78;8347929;28;20575;-66
2021/11/02 19:55:59;;;;;;;2.45;2.00;;;;;;;12.67;55.41;96688.44;8348473;28;20599;-66
2021/11/02 20:00:04;;;;;;;2.30;2.10;;;;;;;12.31;56.89;96692.75;8350145;28;20230;-65
2021/11/02 20:04:07;;;;;;;2.67;1.87;;;;;;;12.29;57.08;96692.03;8347199;28;20228;-66
2021/11/02 20:08:17;;;;;;;2.07;1.50;;;;;;;12.24;56.83;96691.56;8349821;28;20236;-65
2021/11/02 20:12:24;;;;;;;1.93;1.50;;;;;;;12.24;56.57;96695.91;8349216;28;20224;-66
2021/11/02 20:16:27;;;;;;;1.90;1.60;;;;;;;12.13;56.68;96707.06;8347023;28;20224;-66
2021/11/02 20:20:30;;;;;;;2.80;2.30;;;;;;;12.04;56.95;96716.31;8349642;28;20235;-66
2021/11/02 20:24:36;;;;;;;3.00;1.50;;;;;;;11.90;56.65;96717.28;8349183;28;20431;-65
2021/11/02 20:28:39;;;;;;;1.87;1.47;;;;;;;11.91;56.53;96715.50;8349048;28;20236;-66
2021/11/02 20:32:43;;;;;;;1.97;1.67;;;;;;;12.02;56.32;96717.34;8348987;28;20236;-66
2021/11/02 20:36:48;;;;;;;3.43;1.30;;;;;;;12.01;56.22;96731.25;8346064;28;20236;-66
2021/11/02 20:40:54;;;;;;;3.43;1.60;;;;;;;11.97;56.26;96735.00;8348595;28;20228;-66
2021/11/02 20:44:57;;;;;;;3.20;1.67;;;;;;;11.98;55.88;96736.69;8348699;28;20228;-65
2021/11/02 20:49:03;;;;;;;1.87;1.60;;;;;;;11.96;56.16;96739.38;8348525;28;20228;-65
2021/11/02 20:53:07;;;;;;;2.13;1.40;;;;;;;11.63;56.65;96732.94;8348067;28;20247;-66
2021/11/02 20:57:12;;;;;;;3.10;1.60;;;;;;;11.77;56.39;96749.34;8347730;28;20230;-66
2021/11/02 21:01:15;;;;;;;2.47;1.60;;;;;;;11.81;56.25;96753.38;8347289;28;20230;-66
2021/11/02 21:05:22;;;;;;;2.13;1.80;;;;;;;11.81;56.34;96753.38;8347530;28;20236;-67
2021/11/02 21:09:29;;;;;;;11.00;7.00;;;;;;;11.67;56.24;96739.59;8347782;28;20228;-66
2021/11/02 21:13:37;;;;;;;13.13;8.07;;;;;;;11.65;56.06;96744.03;8345897;28;20244;-66
2021/11/02 21:17:41;;;;;;;32.93;27.43;;;;;;;11.31;56.56;96729.94;8347679;28;20243;-66
2021/11/02 21:21:49;;;;;;;40.53;34.13;;;;;;;11.44;56.57;96729.94;8347383;28;20244;-65
2021/11/02 21:25:52;;;;;;;21.50;18.67;;;;;;;11.41;56.66;96736.16;8347220;28;20235;-66
2021/11/02 21:29:56;;;;;;;81.20;51.27;;;;;;;11.24;56.53;96737.28;8347464;28;20243;-70
2021/11/02 21:34:01;;;;;;;12.03;9.47;;;;;;;11.90;55.59;96738.03;8345099;28;20602;-65
2021/11/02 21:38:04;;;;;;;5.77;4.40;;;;;;;11.38;56.61;96741.53;8346863;28;20470;-66
2021/11/02 21:42:11;;;;;;;2.80;2.20;;;;;;;11.39;56.50;96738.03;8341787;28;20551;-66
2021/11/02 21:46:20;;;;;;;3.97;2.60;;;;;;;11.44;56.86;96738.56;8346513;28;20224;-66
2021/11/02 21:50:25;;;;;;;3.80;2.60;;;;;;;11.46;56.77;96744.47;8346971;28;20228;-65
2021/11/02 21:54:32;;;;;;;4.87;2.77;;;;;;;11.48;56.68;96757.28;8346860;28;20232;-66
2021/11/02 21:58:43;;;;;;;4.17;2.60;;;;;;;11.15;57.43;96756.84;8347032;28;20236;-65
2021/11/02 22:02:49;;;;;;;2.97;2.33;;;;;;;11.23;57.65;96748.59;8346697;28;20577;-66
2021/11/02 22:06:53;;;;;;;2.50;1.73;;;;;;;11.28;57.40;96754.28;8344745;28;20232;-66
2021/11/02 22:10:59;;;;;;;2.77;1.70;;;;;;;11.20;58.13;96750.56;8346730;28;20581;-65
2021/11/02 22:15:03;;;;;;;1.53;1.40;;;;;;;11.19;57.58;96754.06;8346392;28;20227;-66
2021/11/02 22:19:07;;;;;;;3.23;1.67;;;;;;;11.09;57.83;96754.66;8346165;28;20565;-65
2021/11/02 22:23:10;;;;;;;1.27;1.17;;;;;;;10.87;59.30;96751.81;8341383;28;20511;-67
2021/11/02 22:27:13;;;;;;;2.40;1.37;;;;;;;11.19;58.17;96739.34;8337810;28;20223;-66
2021/11/02 22:31:16;;;;;;;1.47;1.33;;;;;;;11.13;58.08;96731.97;8345932;28;20251;-67
2021/11/02 22:35:23;;;;;;;2.30;1.40;;;;;;;11.25;58.40;96731.19;8347630;28;20228;-66
2021/11/02 22:39:26;;;;;;;1.83;1.73;;;;;;;11.36;58.06;96740.81;8352254;28;20542;-66
2021/11/02 22:43:29;;;;;;;4.07;1.70;;;;;;;11.08;58.37;96732.28;8352399;28;20224;-65
2021/11/02 22:47:33;;;;;;;2.27;1.60;;;;;;;11.23;58.08;96716.66;8352314;28;20393;-65
2021/11/02 22:51:37;;;;;;;1.10;0.97;;;;;;;11.20;58.47;96716.88;8352233;28;20231;-66
2021/11/02 22:55:41;;;;;;;2.67;1.30;;;;;;;11.32;58.13;96703.91;8351943;28;20235;-65
2021/11/02 22:59:44;;;;;;;1.70;1.40;;;;;;;11.44;57.71;96702.25;8351682;28;20263;-66
2021/11/02 23:03:47;;;;;;;1.67;1.37;;;;;;;11.47;57.88;96694.25;8352003;28;20240;-65
2021/11/02 23:07:51;;;;;;;3.23;1.40;;;;;;;11.23;58.30;96688.13;8349019;28;20270;-66
2021/11/02 23:11:54;;;;;;;2.53;1.70;;;;;;;11.13;59.08;96682.75;8351518;28;20554;-65
2021/11/02 23:15:57;;;;;;;1.80;1.70;;;;;;;11.15;58.66;96673.94;8351334;28;20422;-65
2021/11/02 23:20:00;;;;;;;2.37;1.60;;;;;;;11.06;58.80;96676.31;8351204;28;20558;-65
2021/11/02 23:24:19;;;;;;;4.33;2.30;;;;;;;11.07;58.73;96681.41;8351178;28;20228;-65
2021/11/02 23:28:22;;;;;;;3.90;2.93;;;;;;;10.89;59.74;96680.00;8344002;28;20231;-65
2021/11/02 23:32:27;;;;;;;3.53;2.30;;;;;;;10.48;60.96;96670.63;8350815;28;20542;-65
2021/11/02 23:36:36;;;;;;;2.40;1.83;;;;;;;10.60;60.69;96669.00;8350729;28;20232;-65